createdAt,value
2018-02-02T00:00:36.262Z,22.21
2018-02-02T00:01:38.739Z,22.18
2018-02-02T00:02:41.195Z,22.17
2018-02-02T00:03:43.716Z,22.15
2018-02-02T00:04:46.199Z,22.12
2018-02-02T00:05:48.673Z,22.10
2018-02-02T00:06:51.135Z,22.06
2018-02-02T00:07:53.625Z,22.03
2018-02-02T00:08:56.100Z,22.03
2018-02-02T00:09:58.575Z,22.02
2018-02-02T00:11:01.027Z,22.07
2018-02-02T00:12:03.492Z,22.10
2018-02-02T00:13:05.964Z,22.16
2018-02-02T00:14:08.423Z,22.24
2018-02-02T00:15:10.910Z,22.28
2018-02-02T00:16:13.373Z,22.31
2018-02-02T00:17:15.848Z,22.34
2018-02-02T00:18:18.325Z,22.37
2018-02-02T00:19:20.796Z,22.36
2018-02-02T00:20:23.289Z,22.37
2018-02-02T00:21:25.762Z,22.38
2018-02-02T00:22:28.219Z,22.39
2018-02-02T00:23:30.690Z,22.34
2018-02-02T00:24:33.153Z,22.34
2018-02-02T00:25:35.644Z,22.32
2018-02-02T00:26:38.102Z,22.29
2018-02-02T00:27:40.562Z,22.26
2018-02-02T00:28:43.018Z,22.24
2018-02-02T00:29:45.495Z,22.22
2018-02-02T00:30:47.988Z,22.19
2018-02-02T00:31:50.447Z,22.15
2018-02-02T00:32:52.925Z,22.11
2018-02-02T00:33:55.382Z,22.09
2018-02-02T00:34:57.863Z,22.08
2018-02-02T00:36:00.357Z,22.09
2018-02-02T00:37:02.818Z,22.13
2018-02-02T00:38:05.289Z,22.17
2018-02-02T00:39:07.769Z,22.23
2018-02-02T00:40:10.252Z,22.28
2018-02-02T00:41:12.747Z,22.33
2018-02-02T00:42:15.205Z,22.36
2018-02-02T00:43:17.683Z,22.41
2018-02-02T00:44:20.152Z,22.43
2018-02-02T00:45:22.625Z,22.43
2018-02-02T00:46:25.115Z,22.42
2018-02-02T00:47:27.620Z,22.41
2018-02-02T00:48:30.075Z,22.39
2018-02-02T00:49:32.526Z,22.39
2018-02-02T00:50:40.594Z,22.36
2018-02-02T00:51:48.764Z,22.33
2018-02-02T00:52:51.240Z,22.29
2018-02-02T00:53:53.695Z,22.27
2018-02-02T00:54:56.153Z,22.26
2018-02-02T00:55:58.610Z,22.23
2018-02-02T00:57:01.105Z,22.20
2018-02-02T00:58:03.580Z,22.16
2018-02-02T00:59:06.038Z,22.15
2018-02-02T01:00:08.517Z,22.14
2018-02-02T01:01:10.983Z,22.15
2018-02-02T01:02:13.462Z,22.21
2018-02-02T01:03:15.937Z,22.28
2018-02-02T01:04:18.398Z,22.33
2018-02-02T01:05:20.859Z,22.41
2018-02-02T01:06:23.314Z,22.42
2018-02-02T01:07:25.794Z,22.45
2018-02-02T01:08:28.246Z,22.48
2018-02-02T01:09:30.719Z,22.50
2018-02-02T01:10:33.193Z,22.48
2018-02-02T01:11:35.654Z,22.47
2018-02-02T01:12:38.144Z,22.47
2018-02-02T01:13:40.607Z,22.45
2018-02-02T01:14:43.079Z,22.43
2018-02-02T01:15:45.539Z,22.41
2018-02-02T01:16:47.995Z,22.39
2018-02-02T01:17:50.489Z,22.37
2018-02-02T01:18:52.956Z,22.34
2018-02-02T01:19:55.429Z,22.31
2018-02-02T01:20:57.886Z,22.31
2018-02-02T01:22:00.369Z,22.28
2018-02-02T01:23:02.865Z,22.25
2018-02-02T01:24:05.386Z,22.24
2018-02-02T01:25:07.829Z,22.25
2018-02-02T01:26:10.287Z,22.27
2018-02-02T01:27:12.742Z,22.35
2018-02-02T01:28:15.232Z,22.43
2018-02-02T01:29:17.687Z,22.46
2018-02-02T01:30:20.162Z,22.50
2018-02-02T01:31:22.618Z,22.52
2018-02-02T01:32:25.091Z,22.54
2018-02-02T01:33:27.581Z,22.54
2018-02-02T01:34:30.039Z,22.57
2018-02-02T01:35:32.499Z,22.58
2018-02-02T01:36:34.957Z,22.58
2018-02-02T01:37:37.418Z,22.59
2018-02-02T01:38:39.913Z,22.58
2018-02-02T01:39:42.397Z,22.57
2018-02-02T01:40:44.858Z,22.53
2018-02-02T01:41:47.333Z,22.50
2018-02-02T01:42:49.803Z,22.47
2018-02-02T01:43:52.300Z,22.44
2018-02-02T01:44:54.768Z,22.41
2018-02-02T01:45:57.241Z,22.38
2018-02-02T01:46:59.695Z,22.34
2018-02-02T01:48:14.164Z,22.31
2018-02-02T01:49:16.639Z,22.30
2018-02-02T01:50:19.098Z,22.30
2018-02-02T01:51:21.556Z,22.33
2018-02-02T01:52:24.019Z,22.38
2018-02-02T01:53:26.474Z,22.43
2018-02-02T01:54:28.969Z,22.48
2018-02-02T01:55:31.426Z,22.52
2018-02-02T01:56:33.903Z,22.55
2018-02-02T01:57:36.392Z,22.57
2018-02-02T01:58:38.860Z,22.58
2018-02-02T01:59:41.335Z,22.58
2018-02-02T02:00:43.795Z,22.59
2018-02-02T02:01:46.251Z,22.60
2018-02-02T02:02:48.727Z,22.59
2018-02-02T02:03:51.196Z,22.58
2018-02-02T02:04:53.675Z,22.55
2018-02-02T02:05:56.149Z,22.53
2018-02-02T02:06:58.602Z,22.50
2018-02-02T02:08:01.054Z,22.48
2018-02-02T02:09:03.533Z,22.45
2018-02-02T02:10:06.018Z,22.43
2018-02-02T02:11:08.475Z,22.41
2018-02-02T02:12:10.947Z,22.37
2018-02-02T02:13:13.410Z,22.35
2018-02-02T02:14:15.875Z,22.34
2018-02-02T02:15:18.392Z,22.33
2018-02-02T02:16:20.868Z,22.36
2018-02-02T02:17:23.339Z,22.41
2018-02-02T02:18:25.798Z,22.48
2018-02-02T02:19:28.290Z,22.52
2018-02-02T02:20:30.784Z,22.57
2018-02-02T02:21:33.246Z,22.59
2018-02-02T02:22:35.717Z,22.63
2018-02-02T02:23:38.171Z,22.66
2018-02-02T02:24:40.667Z,22.67
2018-02-02T02:25:43.150Z,22.71
2018-02-02T02:26:45.610Z,22.70
2018-02-02T02:27:48.062Z,22.67
2018-02-02T02:28:50.534Z,22.68
2018-02-02T02:29:52.991Z,22.65
2018-02-02T02:30:55.534Z,22.63
2018-02-02T02:31:57.991Z,22.60
2018-02-02T02:33:00.461Z,22.56
2018-02-02T02:34:02.937Z,22.54
2018-02-02T02:35:05.397Z,22.51
2018-02-02T02:36:07.870Z,22.48
2018-02-02T02:37:10.325Z,22.44
2018-02-02T02:38:12.813Z,22.42
2018-02-02T02:39:15.281Z,22.41
2018-02-02T02:40:17.769Z,22.39
2018-02-02T02:41:20.269Z,22.44
2018-02-02T02:42:22.734Z,22.45
2018-02-02T02:43:25.186Z,22.46
2018-02-02T02:44:27.661Z,22.52
2018-02-02T02:45:30.133Z,22.58
2018-02-02T02:46:32.619Z,22.60
2018-02-02T02:47:35.082Z,22.65
2018-02-02T02:48:37.541Z,22.68
2018-02-02T02:49:39.995Z,22.69
2018-02-02T02:50:42.480Z,22.71
2018-02-02T02:51:44.977Z,22.68
2018-02-02T02:52:47.443Z,22.71
2018-02-02T02:53:49.898Z,22.68
2018-02-02T02:54:52.373Z,22.64
2018-02-02T02:55:54.827Z,22.62
2018-02-02T02:56:57.321Z,22.60
2018-02-02T02:57:59.794Z,22.57
2018-02-02T02:59:02.277Z,22.53
2018-02-02T03:00:04.768Z,22.50
2018-02-02T03:01:07.244Z,22.46
2018-02-02T03:02:09.727Z,22.43
2018-02-02T03:03:12.187Z,22.41
2018-02-02T03:04:14.710Z,22.37
2018-02-02T03:05:17.184Z,22.36
2018-02-02T03:06:19.654Z,22.39
2018-02-02T03:07:22.134Z,22.42
2018-02-02T03:08:24.605Z,22.46
2018-02-02T03:09:27.058Z,22.51
2018-02-02T03:10:29.510Z,22.55
2018-02-02T03:11:31.980Z,22.56
2018-02-02T03:12:34.454Z,22.60
2018-02-02T03:13:36.924Z,22.64
2018-02-02T03:14:39.397Z,22.66
2018-02-02T03:15:41.858Z,22.67
2018-02-02T03:16:44.346Z,22.67
2018-02-02T03:17:46.852Z,22.67
2018-02-02T03:18:49.356Z,22.67
2018-02-02T03:19:51.823Z,22.64
2018-02-02T03:20:54.278Z,22.63
2018-02-02T03:21:56.749Z,22.61
2018-02-02T03:22:59.248Z,22.58
2018-02-02T03:24:01.710Z,22.56
2018-02-02T03:25:04.167Z,22.53
2018-02-02T03:26:06.636Z,22.49
2018-02-02T03:27:09.108Z,22.48
2018-02-02T03:28:11.590Z,22.43
2018-02-02T03:29:14.070Z,22.40
2018-02-02T03:30:16.530Z,22.38
2018-02-02T03:31:19.004Z,22.37
2018-02-02T03:32:21.466Z,22.38
2018-02-02T03:33:23.952Z,22.43
2018-02-02T03:34:26.419Z,22.46
2018-02-02T03:35:28.880Z,22.51
2018-02-02T03:36:31.335Z,22.58
2018-02-02T03:37:33.795Z,22.62
2018-02-02T03:38:36.275Z,22.65
2018-02-02T03:39:38.744Z,22.67
2018-02-02T03:40:41.198Z,22.67
2018-02-02T03:41:43.654Z,22.69
2018-02-02T03:42:46.129Z,22.67
2018-02-02T03:43:48.620Z,22.68
2018-02-02T03:44:51.135Z,22.65
2018-02-02T03:45:53.589Z,22.62
2018-02-02T03:46:56.057Z,22.61
2018-02-02T03:47:58.529Z,22.59
2018-02-02T03:49:01.024Z,22.58
2018-02-02T03:50:03.493Z,22.55
2018-02-02T03:51:05.970Z,22.53
2018-02-02T03:52:08.431Z,22.50
2018-02-02T03:53:10.905Z,22.46
2018-02-02T03:54:13.390Z,22.42
2018-02-02T03:55:15.844Z,22.41
2018-02-02T03:56:18.489Z,22.39
2018-02-02T03:57:20.948Z,22.41
2018-02-02T03:58:23.404Z,22.46
2018-02-02T03:59:25.885Z,22.52
2018-02-02T04:00:28.361Z,22.55
2018-02-02T04:01:30.820Z,22.58
2018-02-02T04:02:33.274Z,22.61
2018-02-02T04:03:35.731Z,22.61
2018-02-02T04:04:38.206Z,22.61
2018-02-02T04:05:40.677Z,22.63
2018-02-02T04:06:43.130Z,22.64
2018-02-02T04:07:45.583Z,22.65
2018-02-02T04:08:48.061Z,22.64
2018-02-02T04:09:50.544Z,22.67
2018-02-02T04:10:52.998Z,22.69
2018-02-02T04:11:55.450Z,22.71
2018-02-02T04:12:57.902Z,22.73
2018-02-02T04:14:00.363Z,22.71
2018-02-02T04:15:02.857Z,22.69
2018-02-02T04:16:05.311Z,22.66
2018-02-02T04:17:07.783Z,22.65
2018-02-02T04:18:10.258Z,22.61
2018-02-02T04:19:12.729Z,22.59
2018-02-02T04:20:15.216Z,22.54
2018-02-02T04:21:17.705Z,22.51
2018-02-02T04:22:20.176Z,22.49
2018-02-02T04:23:22.635Z,22.51
2018-02-02T04:24:25.108Z,22.56
2018-02-02T04:25:27.613Z,22.62
2018-02-02T04:26:30.089Z,22.66
2018-02-02T04:27:32.548Z,22.68
2018-02-02T04:28:35.028Z,22.72
2018-02-02T04:29:37.505Z,22.75
2018-02-02T04:30:40.027Z,22.74
2018-02-02T04:31:42.496Z,22.73
2018-02-02T04:32:45.025Z,22.74
2018-02-02T04:33:47.505Z,22.75
2018-02-02T04:34:50.462Z,22.75
2018-02-02T04:35:53.906Z,22.74
2018-02-02T04:36:56.393Z,22.72
2018-02-02T04:37:58.868Z,22.71
2018-02-02T04:39:01.330Z,22.68
2018-02-02T04:40:03.790Z,22.65
2018-02-02T04:41:06.300Z,22.61
2018-02-02T04:42:08.764Z,22.58
2018-02-02T04:43:11.238Z,22.55
2018-02-02T04:44:13.710Z,22.52
2018-02-02T04:45:16.162Z,22.49
2018-02-02T04:46:18.659Z,22.45
2018-02-02T04:47:21.137Z,22.44
2018-02-02T04:48:23.610Z,22.42
2018-02-02T04:49:26.084Z,22.43
2018-02-02T04:50:28.557Z,22.45
2018-02-02T04:51:31.054Z,22.50
2018-02-02T04:52:33.518Z,22.56
2018-02-02T04:53:35.974Z,22.60
2018-02-02T04:54:38.451Z,22.64
2018-02-02T04:55:40.907Z,22.68
2018-02-02T04:56:43.395Z,22.71
2018-02-02T04:57:45.857Z,22.69
2018-02-02T04:58:48.315Z,22.71
2018-02-02T04:59:50.773Z,22.71
2018-02-02T05:00:53.231Z,22.72
2018-02-02T05:01:55.711Z,22.72
2018-02-02T05:02:58.174Z,22.71
2018-02-02T05:04:00.639Z,22.66
2018-02-02T05:05:03.095Z,22.64
2018-02-02T05:06:05.568Z,22.61
2018-02-02T05:07:08.051Z,22.59
2018-02-02T05:08:10.533Z,22.56
2018-02-02T05:09:12.992Z,22.52
2018-02-02T05:10:15.462Z,22.49
2018-02-02T05:11:17.926Z,22.46
2018-02-02T05:12:20.406Z,22.44
2018-02-02T05:13:22.876Z,22.45
2018-02-02T05:14:25.335Z,22.49
2018-02-02T05:15:27.805Z,22.55
2018-02-02T05:16:30.284Z,22.59
2018-02-02T05:17:32.829Z,22.66
2018-02-02T05:18:35.314Z,22.67
2018-02-02T05:19:37.788Z,22.73
2018-02-02T05:20:40.304Z,22.75
2018-02-02T05:21:42.780Z,22.75
2018-02-02T05:22:45.281Z,22.75
2018-02-02T05:23:47.767Z,22.73
2018-02-02T05:24:50.236Z,22.73
2018-02-02T05:25:52.695Z,22.71
2018-02-02T05:26:55.155Z,22.69
2018-02-02T05:27:57.642Z,22.67
2018-02-02T05:29:00.120Z,22.64
2018-02-02T05:30:02.603Z,22.61
2018-02-02T05:31:05.082Z,22.58
2018-02-02T05:32:07.543Z,22.55
2018-02-02T05:33:10.018Z,22.53
2018-02-02T05:34:12.474Z,22.51
2018-02-02T05:35:14.948Z,22.47
2018-02-02T05:36:17.430Z,22.44
2018-02-02T05:37:19.905Z,22.40
2018-02-02T05:38:22.383Z,22.38
2018-02-02T05:39:24.840Z,22.38
2018-02-02T05:40:27.313Z,22.40
2018-02-02T05:41:29.771Z,22.47
2018-02-02T05:42:32.248Z,22.52
2018-02-02T05:43:34.750Z,22.59
2018-02-02T05:44:37.222Z,22.61
2018-02-02T05:45:39.675Z,22.66
2018-02-02T05:46:42.127Z,22.66
2018-02-02T05:47:44.594Z,22.68
2018-02-02T05:48:47.071Z,22.71
2018-02-02T05:49:49.526Z,22.71
2018-02-02T05:50:51.995Z,22.68
2018-02-02T05:51:54.450Z,22.67
2018-02-02T05:52:56.937Z,22.65
2018-02-02T05:53:59.433Z,22.63
2018-02-02T05:55:01.900Z,22.59
2018-02-02T05:56:04.380Z,22.56
2018-02-02T05:57:06.838Z,22.54
2018-02-02T05:58:09.308Z,22.52
2018-02-02T05:59:11.802Z,22.49
2018-02-02T06:00:14.280Z,22.45
2018-02-02T06:01:16.737Z,22.41
2018-02-02T06:02:19.194Z,22.41
2018-02-02T06:03:21.681Z,22.42
2018-02-02T06:04:24.176Z,22.46
2018-02-02T06:05:26.635Z,22.51
2018-02-02T06:06:29.814Z,22.58
2018-02-02T06:07:33.170Z,22.63
2018-02-02T06:08:35.622Z,22.68
2018-02-02T06:09:38.106Z,22.70
2018-02-02T06:10:40.576Z,22.74
2018-02-02T06:11:43.030Z,22.76
2018-02-02T06:12:45.482Z,22.76
2018-02-02T06:13:47.964Z,22.76
2018-02-02T06:14:50.447Z,22.74
2018-02-02T06:15:52.933Z,22.73
2018-02-02T06:16:55.387Z,22.72
2018-02-02T06:17:57.861Z,22.69
2018-02-02T06:19:00.337Z,22.66
2018-02-02T06:20:02.828Z,22.63
2018-02-02T06:21:05.305Z,22.60
2018-02-02T06:22:07.866Z,22.55
2018-02-02T06:23:10.345Z,22.53
2018-02-02T06:24:12.802Z,22.50
2018-02-02T06:25:15.282Z,22.48
2018-02-02T06:26:17.743Z,22.48
2018-02-02T06:27:20.261Z,22.48
2018-02-02T06:28:22.723Z,22.51
2018-02-02T06:29:25.197Z,22.57
2018-02-02T06:30:27.692Z,22.63
2018-02-02T06:31:30.147Z,22.71
2018-02-02T06:32:32.641Z,22.74
2018-02-02T06:33:35.114Z,22.78
2018-02-02T06:34:37.581Z,22.79
2018-02-02T06:35:40.063Z,22.80
2018-02-02T06:36:42.536Z,22.79
2018-02-02T06:37:45.054Z,22.80
2018-02-02T06:38:47.549Z,22.79
2018-02-02T06:39:50.017Z,22.75
2018-02-02T06:40:52.498Z,22.73
2018-02-02T06:41:54.969Z,22.71
2018-02-02T06:42:57.440Z,22.68
2018-02-02T06:43:59.898Z,22.65
2018-02-02T06:45:02.372Z,22.62
2018-02-02T06:46:04.859Z,22.60
2018-02-02T06:47:07.337Z,22.56
2018-02-02T06:48:09.871Z,22.52
2018-02-02T06:49:12.325Z,22.50
2018-02-02T06:50:14.797Z,22.51
2018-02-02T06:51:17.316Z,22.52
2018-02-02T06:52:19.755Z,22.53
2018-02-02T06:53:22.211Z,22.57
2018-02-02T06:54:24.685Z,22.65
2018-02-02T06:55:27.146Z,22.73
2018-02-02T06:56:29.627Z,22.76
2018-02-02T06:57:32.086Z,22.77
2018-02-02T06:58:34.604Z,22.80
2018-02-02T06:59:37.085Z,22.82
2018-02-02T07:00:39.556Z,22.81
2018-02-02T07:01:42.039Z,22.81
2018-02-02T07:02:44.503Z,22.79
2018-02-02T07:03:46.999Z,22.77
2018-02-02T07:04:49.476Z,22.77
2018-02-02T07:05:51.969Z,22.74
2018-02-02T07:06:54.470Z,22.70
2018-02-02T07:07:56.943Z,22.68
2018-02-02T07:08:59.601Z,22.64
2018-02-02T07:10:02.067Z,22.59
2018-02-02T07:11:04.540Z,22.57
2018-02-02T07:12:07.136Z,22.52
2018-02-02T07:13:09.591Z,22.51
2018-02-02T07:14:12.065Z,22.49
2018-02-02T07:15:14.541Z,22.48
2018-02-02T07:16:17.031Z,22.48
2018-02-02T07:17:19.498Z,22.51
2018-02-02T07:18:21.954Z,22.58
2018-02-02T07:19:24.412Z,22.64
2018-02-02T07:20:26.902Z,22.71
2018-02-02T07:21:29.377Z,22.73
2018-02-02T07:22:31.853Z,22.77
2018-02-02T07:23:34.311Z,22.77
2018-02-02T07:24:36.788Z,22.80
2018-02-02T07:25:39.244Z,22.80
2018-02-02T07:26:41.729Z,22.79
2018-02-02T07:27:44.186Z,22.78
2018-02-02T07:28:46.638Z,22.77
2018-02-02T07:29:49.108Z,22.75
2018-02-02T07:30:51.594Z,22.73
2018-02-02T07:31:54.054Z,22.71
2018-02-02T07:32:56.520Z,22.69
2018-02-02T07:33:59.001Z,22.67
2018-02-02T07:35:01.477Z,22.65
2018-02-02T07:36:03.951Z,22.60
2018-02-02T07:37:06.422Z,22.57
2018-02-02T07:38:08.893Z,22.52
2018-02-02T07:39:11.359Z,22.53
2018-02-02T07:40:13.815Z,22.54
2018-02-02T07:41:16.289Z,22.59
2018-02-02T07:42:18.764Z,22.65
2018-02-02T07:43:21.243Z,22.72
2018-02-02T07:44:23.712Z,22.75
2018-02-02T07:45:26.188Z,22.80
2018-02-02T07:46:28.642Z,22.83
2018-02-02T07:47:32.029Z,22.87
2018-02-02T07:48:34.502Z,22.86
2018-02-02T07:49:37.110Z,22.88
2018-02-02T07:50:39.571Z,22.87
2018-02-02T07:51:42.035Z,22.87
2018-02-02T07:52:44.494Z,22.85
2018-02-02T07:53:46.950Z,22.85
2018-02-02T07:54:49.422Z,22.81
2018-02-02T07:55:51.891Z,22.78
2018-02-02T07:56:54.385Z,22.75
2018-02-02T07:57:56.856Z,22.73
2018-02-02T07:58:59.314Z,22.69
2018-02-02T08:00:01.774Z,22.65
2018-02-02T08:01:09.901Z,22.62
2018-02-02T08:02:12.373Z,22.60
2018-02-02T08:03:14.826Z,22.60
2018-02-02T08:04:17.317Z,22.63
2018-02-02T08:05:19.775Z,22.68
2018-02-02T08:06:22.248Z,22.77
2018-02-02T08:07:24.713Z,22.81
2018-02-02T08:08:27.175Z,22.74
2018-02-02T08:09:29.826Z,22.66
2018-02-02T08:10:32.300Z,22.57
2018-02-02T08:11:34.769Z,22.41
2018-02-02T08:12:37.245Z,22.21
2018-02-02T08:13:39.739Z,22.07
2018-02-02T08:14:42.305Z,21.91
2018-02-02T08:15:44.759Z,21.77
2018-02-02T08:16:47.217Z,21.59
2018-02-02T08:17:49.714Z,21.46
2018-02-02T08:18:52.175Z,21.35
2018-02-02T08:19:54.649Z,21.24
2018-02-02T08:20:57.129Z,21.12
2018-02-02T08:21:59.605Z,20.99
2018-02-02T08:23:02.070Z,20.90
2018-02-02T08:24:05.355Z,20.64
2018-02-02T08:25:07.819Z,20.47
2018-02-02T08:26:10.291Z,20.44
2018-02-02T08:27:12.773Z,20.29
2018-02-02T08:28:15.235Z,20.20
2018-02-02T08:29:17.708Z,20.01
2018-02-02T08:30:20.167Z,19.84
2018-02-02T08:31:22.636Z,19.68
2018-02-02T08:32:25.098Z,19.66
2018-02-02T08:33:27.572Z,19.56
2018-02-02T08:34:30.049Z,19.52
2018-02-02T08:35:32.508Z,19.49
2018-02-02T08:36:34.980Z,19.42
2018-02-02T08:37:37.453Z,19.32
2018-02-02T08:38:39.915Z,19.22
2018-02-02T08:39:42.406Z,19.10
2018-02-02T08:40:44.910Z,19.07
2018-02-02T08:41:47.376Z,19.03
2018-02-02T08:42:49.853Z,19.04
2018-02-02T08:43:52.666Z,18.93
2018-02-02T08:44:55.169Z,18.82
2018-02-02T08:45:57.643Z,18.77
2018-02-02T08:47:00.123Z,18.71
2018-02-02T08:48:02.649Z,18.66
2018-02-02T08:49:05.157Z,18.63
2018-02-02T08:50:07.629Z,18.61
2018-02-02T08:51:10.091Z,18.52
2018-02-02T08:52:12.550Z,18.51
2018-02-02T08:53:15.016Z,18.44
2018-02-02T08:54:17.523Z,18.29
2018-02-02T08:55:20.011Z,18.21
2018-02-02T08:56:22.486Z,18.08
2018-02-02T08:57:24.981Z,18.01
2018-02-02T08:58:27.460Z,17.99
2018-02-02T08:59:29.934Z,17.77
2018-02-02T09:00:32.421Z,17.59
2018-02-02T09:01:40.584Z,17.53
2018-02-02T09:02:43.077Z,17.55
2018-02-02T09:03:45.548Z,17.59
2018-02-02T09:04:48.021Z,17.64
2018-02-02T09:05:50.547Z,17.60
2018-02-02T09:06:52.988Z,17.63
2018-02-02T09:07:55.533Z,17.64
2018-02-02T09:08:58.397Z,17.67
2018-02-02T09:10:00.900Z,17.71
2018-02-02T09:11:03.397Z,17.78
2018-02-02T09:12:05.881Z,17.85
2018-02-02T09:13:08.392Z,17.90
2018-02-02T09:14:10.864Z,17.95
2018-02-02T09:15:13.356Z,17.98
2018-02-02T09:16:15.861Z,18.00
2018-02-02T09:17:18.341Z,18.04
2018-02-02T09:18:20.859Z,18.08
2018-02-02T09:19:23.388Z,18.09
2018-02-02T09:20:25.881Z,18.11
2018-02-02T09:21:28.386Z,18.14
2018-02-02T09:22:30.885Z,18.15
2018-02-02T09:23:34.244Z,18.16
2018-02-02T09:24:36.703Z,18.16
2018-02-02T09:25:39.181Z,18.17
2018-02-02T09:26:41.657Z,18.17
2018-02-02T09:27:43.575Z,18.18
2018-02-02T09:28:46.039Z,18.20
2018-02-02T09:29:48.499Z,18.18
2018-02-02T09:30:51.005Z,18.16
2018-02-02T09:31:53.495Z,18.13
2018-02-02T09:32:55.975Z,18.11
2018-02-02T09:33:58.478Z,18.18
2018-02-02T09:35:00.974Z,18.20
2018-02-02T09:36:03.449Z,18.24
2018-02-02T09:37:05.929Z,18.32
2018-02-02T09:38:08.402Z,18.41
2018-02-02T09:39:10.899Z,18.52
2018-02-02T09:40:13.379Z,18.66
2018-02-02T09:41:15.857Z,18.85
2018-02-02T09:42:18.329Z,19.04
2018-02-02T09:43:20.790Z,19.26
2018-02-02T09:44:23.258Z,19.53
2018-02-02T09:45:25.733Z,19.78
2018-02-02T09:46:28.233Z,19.99
2018-02-02T09:47:30.715Z,20.15
2018-02-02T09:48:33.170Z,20.34
2018-02-02T09:49:35.640Z,20.46
2018-02-02T09:50:38.103Z,20.60
2018-02-02T09:51:40.582Z,20.71
2018-02-02T09:52:43.053Z,20.77
2018-02-02T09:53:45.512Z,20.84
2018-02-02T09:54:47.989Z,20.89
2018-02-02T09:55:50.478Z,20.94
2018-02-02T09:56:52.963Z,20.93
2018-02-02T09:57:55.429Z,20.96
2018-02-02T09:58:57.930Z,20.96
2018-02-02T10:00:00.416Z,20.95
2018-02-02T10:01:02.925Z,20.94
2018-02-02T10:02:05.387Z,20.93
2018-02-02T10:03:07.846Z,20.93
2018-02-02T10:04:10.457Z,20.91
2018-02-02T10:05:12.895Z,20.89
2018-02-02T10:06:15.437Z,20.88
2018-02-02T10:07:17.899Z,20.87
2018-02-02T10:08:20.495Z,20.82
2018-02-02T10:09:22.973Z,20.80
2018-02-02T10:10:25.463Z,20.78
2018-02-02T10:11:27.939Z,20.78
2018-02-02T10:12:30.408Z,20.76
2018-02-02T10:13:32.905Z,20.72
2018-02-02T10:14:35.367Z,20.69
2018-02-02T10:15:37.836Z,20.66
2018-02-02T10:16:40.296Z,20.63
2018-02-02T10:17:42.771Z,20.60
2018-02-02T10:18:45.231Z,20.57
2018-02-02T10:19:47.691Z,20.54
2018-02-02T10:20:50.150Z,20.51
2018-02-02T10:21:52.633Z,20.48
2018-02-02T10:22:55.092Z,20.46
2018-02-02T10:23:57.558Z,20.44
2018-02-02T10:25:00.034Z,20.40
2018-02-02T10:26:02.511Z,20.37
2018-02-02T10:27:04.970Z,20.35
2018-02-02T10:28:07.440Z,20.33
2018-02-02T10:29:09.895Z,20.31
2018-02-02T10:30:12.381Z,20.29
2018-02-02T10:31:14.848Z,20.27
2018-02-02T10:32:17.353Z,20.24
2018-02-02T10:33:20.239Z,20.23
2018-02-02T10:34:22.772Z,20.23
2018-02-02T10:35:25.235Z,20.24
2018-02-02T10:36:27.713Z,20.27
2018-02-02T10:37:30.279Z,20.32
2018-02-02T10:38:32.753Z,20.43
2018-02-02T10:39:35.220Z,20.50
2018-02-02T10:40:37.684Z,20.59
2018-02-02T10:41:40.149Z,20.64
2018-02-02T10:42:42.603Z,20.70
2018-02-02T10:43:45.222Z,20.76
2018-02-02T10:44:47.704Z,20.80
2018-02-02T10:45:50.172Z,20.83
2018-02-02T10:46:52.626Z,20.83
2018-02-02T10:47:55.097Z,20.84
2018-02-02T10:48:57.576Z,20.83
2018-02-02T10:50:00.039Z,20.83
2018-02-02T10:51:02.514Z,20.82
2018-02-02T10:52:05.000Z,20.82
2018-02-02T10:53:07.520Z,20.80
2018-02-02T10:54:09.994Z,20.77
2018-02-02T10:55:12.453Z,20.74
2018-02-02T10:56:14.910Z,20.72
2018-02-02T10:57:17.382Z,20.70
2018-02-02T10:58:19.853Z,20.67
2018-02-02T10:59:22.356Z,20.63
2018-02-02T11:00:24.814Z,20.61
2018-02-02T11:01:32.777Z,20.59
2018-02-02T11:02:40.935Z,20.56
2018-02-02T11:05:14.503Z,20.50
2018-02-02T11:06:16.969Z,20.48
2018-02-02T11:07:19.445Z,20.45
2018-02-02T11:08:21.902Z,20.43
2018-02-02T11:09:24.380Z,20.41
2018-02-02T11:10:26.869Z,20.38
2018-02-02T11:11:29.326Z,20.36
2018-02-02T11:12:31.806Z,20.37
2018-02-02T11:13:34.258Z,20.37
2018-02-02T11:14:36.714Z,20.41
2018-02-02T11:15:39.191Z,20.45
2018-02-02T11:16:41.661Z,20.59
2018-02-02T11:17:44.135Z,20.64
2018-02-02T11:18:46.607Z,20.70
2018-02-02T11:19:49.059Z,20.80
2018-02-02T11:20:51.522Z,20.89
2018-02-02T11:21:54.043Z,20.95
2018-02-02T11:22:56.517Z,21.00
2018-02-02T11:23:58.989Z,21.07
2018-02-02T11:25:01.452Z,21.09
2018-02-02T11:26:03.906Z,21.11
2018-02-02T11:27:06.370Z,21.14
2018-02-02T11:28:08.888Z,21.17
2018-02-02T11:29:11.320Z,21.16
2018-02-02T11:30:13.793Z,21.15
2018-02-02T11:31:16.252Z,21.14
2018-02-02T11:32:18.706Z,21.15
2018-02-02T11:33:21.191Z,21.13
2018-02-02T11:34:23.661Z,21.12
2018-02-02T11:35:26.122Z,21.11
2018-02-02T11:36:28.578Z,21.14
2018-02-02T11:37:31.110Z,21.17
2018-02-02T11:38:33.546Z,21.19
2018-02-02T11:39:35.999Z,21.23
2018-02-02T11:40:38.468Z,21.28
2018-02-02T11:41:40.927Z,21.30
2018-02-02T11:42:43.382Z,21.31
2018-02-02T11:43:45.853Z,21.33
2018-02-02T11:44:48.306Z,21.37
2018-02-02T11:45:50.777Z,21.40
2018-02-02T11:46:53.239Z,21.43
2018-02-02T11:47:55.708Z,21.47
2018-02-02T11:48:58.166Z,21.48
2018-02-02T11:50:00.626Z,21.45
2018-02-02T11:51:03.079Z,21.44
2018-02-02T11:52:05.536Z,21.40
2018-02-02T11:53:08.008Z,21.33
2018-02-02T11:54:10.464Z,21.31
2018-02-02T11:55:12.997Z,21.25
2018-02-02T11:56:15.481Z,21.23
2018-02-02T11:57:17.951Z,21.20
2018-02-02T11:58:20.410Z,21.17
2018-02-02T11:59:22.881Z,21.12
2018-02-02T12:00:25.353Z,21.09
2018-02-02T12:01:27.825Z,21.05
2018-02-02T12:02:30.279Z,21.02
2018-02-02T12:03:32.753Z,20.97
2018-02-02T12:04:35.213Z,20.93
2018-02-02T12:05:37.678Z,20.89
2018-02-02T12:06:40.138Z,20.86
2018-02-02T12:07:42.617Z,20.81
2018-02-02T12:08:45.128Z,20.80
2018-02-02T12:09:47.589Z,20.82
2018-02-02T12:10:50.056Z,20.84
2018-02-02T12:11:52.528Z,20.90
2018-02-02T12:12:55.005Z,20.98
2018-02-02T12:13:57.471Z,21.02
2018-02-02T12:14:59.934Z,21.11
2018-02-02T12:16:02.409Z,21.14
2018-02-02T12:17:04.880Z,21.19
2018-02-02T12:18:07.351Z,21.25
2018-02-02T12:19:09.830Z,21.29
2018-02-02T12:20:12.394Z,21.31
2018-02-02T12:21:14.869Z,21.33
2018-02-02T12:22:23.178Z,21.33
2018-02-02T12:23:26.184Z,21.32
2018-02-02T12:24:43.526Z,21.31
2018-02-02T12:25:54.274Z,21.30
2018-02-02T12:27:02.255Z,21.29
2018-02-02T12:29:51.251Z,21.25
2018-02-02T12:31:05.460Z,21.22
2018-02-02T12:32:13.726Z,21.18
2018-02-02T12:33:21.382Z,21.16
2018-02-02T12:34:25.496Z,21.12
2018-02-02T12:35:28.419Z,21.09
2018-02-02T12:36:32.414Z,21.05
2018-02-02T12:37:34.881Z,21.03
2018-02-02T12:38:37.339Z,21.00
2018-02-02T12:39:39.818Z,20.97
2018-02-02T12:40:42.312Z,20.94
2018-02-02T12:41:44.818Z,20.90
2018-02-02T12:42:47.289Z,20.86
2018-02-02T12:43:49.765Z,20.82
2018-02-02T12:44:52.231Z,20.79
2018-02-02T12:45:54.712Z,20.76
2018-02-02T12:46:57.198Z,20.72
2018-02-02T12:48:01.627Z,20.68
2018-02-02T12:49:05.905Z,20.65
2018-02-02T12:50:08.373Z,20.63
2018-02-02T12:51:16.628Z,20.60
2018-02-02T12:52:19.109Z,20.58
2018-02-02T12:53:21.593Z,20.58
2018-02-02T12:54:24.065Z,20.61
2018-02-02T12:55:26.565Z,20.65
2018-02-02T12:56:29.056Z,20.78
2018-02-02T12:57:31.570Z,20.84
2018-02-02T12:58:34.012Z,20.93
2018-02-02T12:59:36.471Z,20.95
2018-02-02T13:00:38.946Z,20.99
2018-02-02T13:01:41.413Z,21.05
2018-02-02T13:02:43.885Z,21.08
2018-02-02T13:03:46.366Z,21.13
2018-02-02T13:04:48.831Z,21.15
2018-02-02T13:05:51.324Z,21.17
2018-02-02T13:06:53.783Z,21.19
2018-02-02T13:07:56.268Z,21.20
2018-02-02T13:08:58.834Z,21.22
2018-02-02T13:10:01.304Z,21.22
2018-02-02T13:11:03.813Z,21.21
2018-02-02T13:12:06.279Z,21.22
2018-02-02T13:13:08.750Z,21.22
2018-02-02T13:14:11.223Z,21.21
2018-02-02T13:15:13.699Z,21.20
2018-02-02T13:16:16.179Z,21.19
2018-02-02T13:17:18.637Z,21.18
2018-02-02T13:18:21.218Z,21.15
2018-02-02T13:19:23.690Z,21.12
2018-02-02T13:20:26.164Z,21.09
2018-02-02T13:21:28.665Z,21.07
2018-02-02T13:22:31.258Z,21.01
2018-02-02T13:23:33.723Z,20.96
2018-02-02T13:24:36.201Z,20.91
2018-02-02T13:25:38.710Z,20.87
2018-02-02T13:26:41.210Z,20.83
2018-02-02T13:27:43.689Z,20.79
2018-02-02T13:28:46.170Z,20.76
2018-02-02T13:29:48.665Z,20.72